SBQV

Details ICAO SBQV (VDC)
Name VITORIA DA CONQUISTA
Region Brazil
Timezone America/Bahia (UTC-3.0)
Plans Departing 12
Arriving 20
Stats Elevation 2,998 ft / 914 m (AMSL)
Location -14.862759° -40.863104°
Runways 1
Magnetic Variation 23.448° W
Sunrise 2018-04-19 08:52:11 UTC / 2018-04-19 05:52:11 Local
Sunset 2018-04-19 20:35:09 UTC / 2018-04-19 17:35:09 Local
Advertisement - Login to hide

Runways

ID Width Length Bearing (true) Bearing (mag) Surface Threshold Offset Overrun Length
15 98 ft / 30 m 5,831 ft / 1,777 m 126.17° 149.62° Asphalt 0 ft / 0 m 175 ft / 53 m
33 98 ft / 30 m 5,831 ft / 1,777 m 306.17° 329.62° Asphalt 0 ft / 0 m 0 ft / 0 m

Map

Weather


0- 5 10 15 20 25 30 35+ Temperature / ° C

Clouds and Precipitation
Forecast for 2018-04-19 18:00 UTC. Updated 4 hours ago

Ground ~20,000 ft ~40,000 ft Winds

METAR

SBQV 192000Z 16010KT 9999 BKN025 21/17 Q1021

TAF

Not found

Frequencies

Tower 130.30 MHz RDO
Warning: Do not use this data for real-world aviation or navigation. No guarantee of current accuracy is given.